sensor_id;sensor_type;location;lat;lon;timestamp;pressure;altitude;pressure_sealevel;temperature;humidity
28027;BME280;15344;52.342;-1.290;2023-11-22T00:00:08;101711.80;;;10.72;86.72
28027;BME280;15344;52.342;-1.290;2023-11-22T00:02:33;101707.69;;;10.75;86.06
28027;BME280;15344;52.342;-1.290;2023-11-22T00:04:58;101714.27;;;10.94;86.36
28027;BME280;15344;52.342;-1.290;2023-11-22T00:07:23;101712.67;;;10.60;86.92
28027;BME280;15344;52.342;-1.290;2023-11-22T00:09:48;101714.90;;;10.38;88.66
28027;BME280;15344;52.342;-1.290;2023-11-22T00:12:14;101714.93;;;10.83;88.25
28027;BME280;15344;52.342;-1.290;2023-11-22T00:14:39;101709.18;;;11.01;87.66
28027;BME280;15344;52.342;-1.290;2023-11-22T00:17:04;101699.65;;;11.01;88.26
28027;BME280;15344;52.342;-1.290;2023-11-22T00:19:30;101695.25;;;10.27;88.04
28027;BME280;15344;52.342;-1.290;2023-11-22T00:21:55;101694.16;;;10.86;87.57
28027;BME280;15344;52.342;-1.290;2023-11-22T00:24:20;101706.91;;;11.02;88.15
28027;BME280;15344;52.342;-1.290;2023-11-22T00:26:46;101704.83;;;10.77;87.73
28027;BME280;15344;52.342;-1.290;2023-11-22T00:29:11;101700.64;;;10.75;87.86
28027;BME280;15344;52.342;-1.290;2023-11-22T00:31:37;101694.34;;;11.20;87.43
28027;BME280;15344;52.342;-1.290;2023-11-22T00:34:02;101692.95;;;10.90;88.55
28027;BME280;15344;52.342;-1.290;2023-11-22T00:36:27;101693.20;;;10.65;88.46
28027;BME280;15344;52.342;-1.290;2023-11-22T00:38:53;101692.53;;;11.07;88.23
28027;BME280;15344;52.342;-1.290;2023-11-22T00:41:18;101685.84;;;11.09;87.49
28027;BME280;15344;52.342;-1.290;2023-11-22T00:43:43;101684.60;;;11.22;87.64
28027;BME280;15344;52.342;-1.290;2023-11-22T00:46:09;101690.01;;;11.09;88.08
28027;BME280;15344;52.342;-1.290;2023-11-22T00:48:34;101686.88;;;11.33;88.18
28027;BME280;15344;52.342;-1.290;2023-11-22T00:51:00;101682.17;;;11.10;88.75
28027;BME280;15344;52.342;-1.290;2023-11-22T00:53:25;101684.76;;;11.37;88.23
28027;BME280;15344;52.342;-1.290;2023-11-22T00:55:51;101682.59;;;11.19;88.31
28027;BME280;15344;52.342;-1.290;2023-11-22T00:58:16;101677.73;;;11.25;88.56
28027;BME280;15344;52.342;-1.290;2023-11-22T01:00:41;101676.60;;;11.19;88.65
28027;BME280;15344;52.342;-1.290;2023-11-22T01:03:07;101681.49;;;11.48;88.35
28027;BME280;15344;52.342;-1.290;2023-11-22T01:05:32;101687.22;;;11.44;88.37
28027;BME280;15344;52.342;-1.290;2023-11-22T01:07:57;101689.58;;;11.52;88.34
28027;BME280;15344;52.342;-1.290;2023-11-22T01:10:23;101691.76;;;11.48;88.40
28027;BME280;15344;52.342;-1.290;2023-11-22T01:12:48;101688.13;;;11.63;88.16
28027;BME280;15344;52.342;-1.290;2023-11-22T01:15:14;101686.70;;;11.66;88.50
28027;BME280;15344;52.342;-1.290;2023-11-22T01:17:39;101680.27;;;11.35;88.63
28027;BME280;15344;52.342;-1.290;2023-11-22T01:20:06;101681.16;;;11.58;89.48
28027;BME280;15344;52.342;-1.290;2023-11-22T01:22:30;101686.43;;;11.27;88.92
28027;BME280;15344;52.342;-1.290;2023-11-22T01:24:55;101685.70;;;11.97;87.63
28027;BME280;15344;52.342;-1.290;2023-11-22T01:27:21;101676.35;;;11.91;87.62
28027;BME280;15344;52.342;-1.290;2023-11-22T01:29:46;101668.44;;;12.04;86.51
28027;BME280;15344;52.342;-1.290;2023-11-22T01:32:12;101671.04;;;11.93;86.78
28027;BME280;15344;52.342;-1.290;2023-11-22T01:34:38;101673.48;;;11.83;87.92
28027;BME280;15344;52.342;-1.290;2023-11-22T01:37:03;101671.84;;;11.75;88.12
28027;BME280;15344;52.342;-1.290;2023-11-22T01:39:28;101681.41;;;11.51;87.18
28027;BME280;15344;52.342;-1.290;2023-11-22T01:41:54;101687.22;;;11.64;88.43
28027;BME280;15344;52.342;-1.290;2023-11-22T01:44:19;101689.79;;;11.35;89.61
28027;BME280;15344;52.342;-1.290;2023-11-22T01:46:44;101682.75;;;11.27;90.83
28027;BME280;15344;52.342;-1.290;2023-11-22T01:49:10;101679.53;;;11.08;91.51
28027;BME280;15344;52.342;-1.290;2023-11-22T01:51:34;101678.87;;;11.11;91.32
28027;BME280;15344;52.342;-1.290;2023-11-22T01:53:59;101684.31;;;11.15;91.72
28027;BME280;15344;52.342;-1.290;2023-11-22T01:56:26;101684.37;;;11.55;91.12
28027;BME280;15344;52.342;-1.290;2023-11-22T01:58:50;101682.04;;;11.63;90.92
28027;BME280;15344;52.342;-1.290;2023-11-22T02:01:16;101685.37;;;11.37;91.50
28027;BME280;15344;52.342;-1.290;2023-11-22T02:03:41;101679.80;;;11.74;90.18
28027;BME280;15344;52.342;-1.290;2023-11-22T02:06:08;101672.04;;;11.70;89.67
28027;BME280;15344;52.342;-1.290;2023-11-22T02:08:32;101673.92;;;11.47;88.73
28027;BME280;15344;52.342;-1.290;2023-11-22T02:10:58;101672.07;;;11.54;89.90
28027;BME280;15344;52.342;-1.290;2023-11-22T02:13:23;101671.30;;;11.67;89.47
28027;BME280;15344;52.342;-1.290;2023-11-22T02:15:48;101665.07;;;11.61;87.81
28027;BME280;15344;52.342;-1.290;2023-11-22T02:18:14;101663.19;;;11.51;90.06
28027;BME280;15344;52.342;-1.290;2023-11-22T02:20:39;101659.48;;;11.24;90.91
28027;BME280;15344;52.342;-1.290;2023-11-22T02:23:08;101656.13;;;11.11;90.74
28027;BME280;15344;52.342;-1.290;2023-11-22T02:25:29;101661.89;;;11.30;91.07
28027;BME280;15344;52.342;-1.290;2023-11-22T02:27:55;101656.22;;;10.97;91.46
28027;BME280;15344;52.342;-1.290;2023-11-22T02:30:20;101659.03;;;11.10;90.92
28027;BME280;15344;52.342;-1.290;2023-11-22T02:32:45;101661.14;;;11.24;91.19
28027;BME280;15344;52.342;-1.290;2023-11-22T02:35:11;101656.18;;;11.04;90.93
28027;BME280;15344;52.342;-1.290;2023-11-22T02:37:36;101648.47;;;10.80;92.36
28027;BME280;15344;52.342;-1.290;2023-11-22T02:40:06;101650.66;;;10.07;97.57
28027;BME280;15344;52.342;-1.290;2023-11-22T02:42:27;101648.71;;;10.41;96.29
28027;BME280;15344;52.342;-1.290;2023-11-22T02:44:52;101636.00;;;10.67;94.56
28027;BME280;15344;52.342;-1.290;2023-11-22T02:47:17;101633.13;;;10.66;95.74
28027;BME280;15344;52.342;-1.290;2023-11-22T02:49:43;101640.52;;;10.80;96.07
28027;BME280;15344;52.342;-1.290;2023-11-22T02:52:08;101641.12;;;10.07;98.89
28027;BME280;15344;52.342;-1.290;2023-11-22T02:54:34;101638.53;;;9.95;100.00
28027;BME280;15344;52.342;-1.290;2023-11-22T02:56:59;101636.39;;;9.86;100.00
28027;BME280;15344;52.342;-1.290;2023-11-22T02:59:25;101641.32;;;10.22;100.00
28027;BME280;15344;52.342;-1.290;2023-11-22T03:01:51;101646.74;;;9.99;100.00
28027;BME280;15344;52.342;-1.290;2023-11-22T03:04:16;101647.81;;;9.62;100.00
28027;BME280;15344;52.342;-1.290;2023-11-22T03:06:42;101642.74;;;9.62;100.00
28027;BME280;15344;52.342;-1.290;2023-11-22T03:09:07;101644.64;;;9.81;100.00
28027;BME280;15344;52.342;-1.290;2023-11-22T03:11:32;101653.88;;;9.85;100.00
28027;BME280;15344;52.342;-1.290;2023-11-22T03:13:57;101658.47;;;9.38;100.00
28027;BME280;15344;52.342;-1.290;2023-11-22T03:16:23;101659.40;;;9.98;100.00
28027;BME280;15344;52.342;-1.290;2023-11-22T03:18:48;101655.10;;;10.01;100.00
28027;BME280;15344;52.342;-1.290;2023-11-22T03:21:14;101655.49;;;10.20;100.00
28027;BME280;15344;52.342;-1.290;2023-11-22T03:23:39;101650.64;;;9.99;100.00
28027;BME280;15344;52.342;-1.290;2023-11-22T03:26:05;101643.62;;;9.34;100.00
28027;BME280;15344;52.342;-1.290;2023-11-22T03:28:30;101645.16;;;9.89;100.00
28027;BME280;15344;52.342;-1.290;2023-11-22T03:30:56;101646.18;;;9.80;100.00
28027;BME280;15344;52.342;-1.290;2023-11-22T03:33:22;101643.38;;;9.70;100.00
28027;BME280;15344;52.342;-1.290;2023-11-22T03:35:48;101648.53;;;9.59;100.00
28027;BME280;15344;52.342;-1.290;2023-11-22T03:38:13;101654.51;;;9.63;100.00
28027;BME280;15344;52.342;-1.290;2023-11-22T03:40:39;101652.18;;;9.75;100.00
28027;BME280;15344;52.342;-1.290;2023-11-22T03:43:04;101651.42;;;9.82;100.00
28027;BME280;15344;52.342;-1.290;2023-11-22T03:45:29;101641.94;;;10.10;100.00
28027;BME280;15344;52.342;-1.290;2023-11-22T03:47:55;101629.87;;;9.68;100.00
28027;BME280;15344;52.342;-1.290;2023-11-22T03:50:21;101628.63;;;9.89;100.00
28027;BME280;15344;52.342;-1.290;2023-11-22T03:52:46;101635.87;;;9.34;100.00
28027;BME280;15344;52.342;-1.290;2023-11-22T03:55:13;101632.63;;;9.01;100.00
28027;BME280;15344;52.342;-1.290;2023-11-22T03:57:37;101637.14;;;9.60;100.00
28027;BME280;15344;52.342;-1.290;2023-11-22T04:00:04;101645.37;;;10.12;100.00
28027;BME280;15344;52.342;-1.290;2023-11-22T04:02:29;101650.74;;;10.04;100.00
28027;BME280;15344;52.342;-1.290;2023-11-22T04:04:54;101641.47;;;10.10;100.00
28027;BME280;15344;52.342;-1.290;2023-11-22T04:07:20;101633.94;;;9.68;100.00
28027;BME280;15344;52.342;-1.290;2023-11-22T04:09:45;101632.74;;;9.90;100.00
28027;BME280;15344;52.342;-1.290;2023-11-22T04:12:11;101631.13;;;9.17;100.00
28027;BME280;15344;52.342;-1.290;2023-11-22T04:14:36;101633.64;;;9.89;100.00
28027;BME280;15344;52.342;-1.290;2023-11-22T04:17:02;101641.36;;;10.19;100.00
28027;BME280;15344;52.342;-1.290;2023-11-22T04:19:27;101636.86;;;10.32;100.00
28027;BME280;15344;52.342;-1.290;2023-11-22T04:21:52;101633.12;;;10.31;100.00
28027;BME280;15344;52.342;-1.290;2023-11-22T04:24:18;101637.83;;;9.91;100.00
28027;BME280;15344;52.342;-1.290;2023-11-22T04:26:44;101626.37;;;9.88;100.00
28027;BME280;15344;52.342;-1.290;2023-11-22T04:29:09;101626.71;;;9.59;100.00
28027;BME280;15344;52.342;-1.290;2023-11-22T04:31:34;101623.29;;;9.31;100.00
28027;BME280;15344;52.342;-1.290;2023-11-22T04:34:00;101616.84;;;9.61;100.00
28027;BME280;15344;52.342;-1.290;2023-11-22T04:36:25;101611.38;;;9.16;100.00
28027;BME280;15344;52.342;-1.290;2023-11-22T04:38:51;101607.47;;;9.32;100.00
28027;BME280;15344;52.342;-1.290;2023-11-22T04:41:16;101604.69;;;9.48;100.00
28027;BME280;15344;52.342;-1.290;2023-11-22T04:43:43;101618.88;;;9.29;100.00
28027;BME280;15344;52.342;-1.290;2023-11-22T04:46:08;101625.70;;;9.22;100.00
28027;BME280;15344;52.342;-1.290;2023-11-22T04:48:34;101621.47;;;9.42;100.00
28027;BME280;15344;52.342;-1.290;2023-11-22T04:50:59;101623.50;;;9.58;100.00
28027;BME280;15344;52.342;-1.290;2023-11-22T04:53:24;101618.74;;;9.78;100.00
28027;BME280;15344;52.342;-1.290;2023-11-22T04:55:51;101617.08;;;8.67;100.00
28027;BME280;15344;52.342;-1.290;2023-11-22T04:58:16;101618.85;;;9.53;100.00
28027;BME280;15344;52.342;-1.290;2023-11-22T05:00:42;101610.12;;;9.65;100.00
28027;BME280;15344;52.342;-1.290;2023-11-22T05:03:07;101607.84;;;9.33;100.00
28027;BME280;15344;52.342;-1.290;2023-11-22T05:05:32;101608.58;;;9.55;100.00
28027;BME280;15344;52.342;-1.290;2023-11-22T05:07:57;101608.15;;;9.77;100.00
28027;BME280;15344;52.342;-1.290;2023-11-22T05:10:23;101611.17;;;9.56;100.00
28027;BME280;15344;52.342;-1.290;2023-11-22T05:12:48;101605.02;;;9.52;100.00
28027;BME280;15344;52.342;-1.290;2023-11-22T05:15:14;101595.87;;;9.78;100.00
28027;BME280;15344;52.342;-1.290;2023-11-22T05:17:40;101600.08;;;9.53;100.00
28027;BME280;15344;52.342;-1.290;2023-11-22T05:20:07;101581.99;;;9.58;100.00
28027;BME280;15344;52.342;-1.290;2023-11-22T05:22:31;101578.25;;;10.27;100.00
28027;BME280;15344;52.342;-1.290;2023-11-22T05:24:56;101583.22;;;9.90;100.00
28027;BME280;15344;52.342;-1.290;2023-11-22T05:27:22;101583.55;;;9.37;100.00
28027;BME280;15344;52.342;-1.290;2023-11-22T05:29:47;101586.87;;;9.23;100.00
28027;BME280;15344;52.342;-1.290;2023-11-22T05:32:12;101579.96;;;9.88;100.00
28027;BME280;15344;52.342;-1.290;2023-11-22T05:34:37;101573.89;;;9.77;100.00
28027;BME280;15344;52.342;-1.290;2023-11-22T05:37:03;101563.03;;;9.83;100.00
28027;BME280;15344;52.342;-1.290;2023-11-22T05:39:28;101546.60;;;10.19;100.00
28027;BME280;15344;52.342;-1.290;2023-11-22T05:41:54;101550.99;;;9.05;100.00
28027;BME280;15344;52.342;-1.290;2023-11-22T05:44:19;101557.11;;;10.32;100.00
28027;BME280;15344;52.342;-1.290;2023-11-22T05:46:44;101560.95;;;9.67;100.00
28027;BME280;15344;52.342;-1.290;2023-11-22T05:49:10;101556.27;;;9.48;100.00
28027;BME280;15344;52.342;-1.290;2023-11-22T05:51:35;101560.43;;;10.05;100.00
28027;BME280;15344;52.342;-1.290;2023-11-22T05:54:00;101568.88;;;9.97;100.00
28027;BME280;15344;52.342;-1.290;2023-11-22T05:56:26;101577.33;;;10.28;100.00
28027;BME280;15344;52.342;-1.290;2023-11-22T05:58:51;101587.83;;;10.12;100.00
28027;BME280;15344;52.342;-1.290;2023-11-22T06:01:17;101596.39;;;10.18;100.00
28027;BME280;15344;52.342;-1.290;2023-11-22T06:03:43;101598.95;;;10.08;100.00
28027;BME280;15344;52.342;-1.290;2023-11-22T06:06:08;101600.01;;;9.98;100.00
28027;BME280;15344;52.342;-1.290;2023-11-22T06:08:34;101600.12;;;9.97;100.00
28027;BME280;15344;52.342;-1.290;2023-11-22T06:11:00;101598.29;;;10.52;100.00
28027;BME280;15344;52.342;-1.290;2023-11-22T06:13:25;101593.39;;;10.43;100.00
28027;BME280;15344;52.342;-1.290;2023-11-22T06:15:51;101588.12;;;10.05;100.00
28027;BME280;15344;52.342;-1.290;2023-11-22T06:18:16;101587.97;;;10.37;99.08
28027;BME280;15344;52.342;-1.290;2023-11-22T06:20:42;101592.09;;;10.55;98.04
28027;BME280;15344;52.342;-1.290;2023-11-22T06:23:07;101596.10;;;10.70;97.80
28027;BME280;15344;52.342;-1.290;2023-11-22T06:25:32;101596.78;;;10.45;97.31
28027;BME280;15344;52.342;-1.290;2023-11-22T06:27:58;101597.65;;;10.09;98.82
28027;BME280;15344;52.342;-1.290;2023-11-22T06:30:23;101596.94;;;9.58;100.00
28027;BME280;15344;52.342;-1.290;2023-11-22T06:32:49;101588.56;;;10.55;98.98
28027;BME280;15344;52.342;-1.290;2023-11-22T06:35:14;101591.80;;;9.63;100.00
28027;BME280;15344;52.342;-1.290;2023-11-22T06:37:40;101598.25;;;10.40;100.00
28027;BME280;15344;52.342;-1.290;2023-11-22T06:40:05;101597.12;;;10.17;100.00
28027;BME280;15344;52.342;-1.290;2023-11-22T06:42:30;101599.01;;;10.01;100.00
28027;BME280;15344;52.342;-1.290;2023-11-22T06:44:55;101602.77;;;10.38;100.00
28027;BME280;15344;52.342;-1.290;2023-11-22T06:47:21;101600.37;;;10.51;100.00
28027;BME280;15344;52.342;-1.290;2023-11-22T06:49:45;101593.81;;;9.84;100.00
28027;BME280;15344;52.342;-1.290;2023-11-22T06:52:11;101592.29;;;10.61;100.00
28027;BME280;15344;52.342;-1.290;2023-11-22T06:54:36;101588.43;;;10.03;100.00
28027;BME280;15344;52.342;-1.290;2023-11-22T06:57:02;101581.55;;;10.21;100.00
28027;BME280;15344;52.342;-1.290;2023-11-22T06:59:27;101591.32;;;9.26;100.00
28027;BME280;15344;52.342;-1.290;2023-11-22T07:01:53;101604.47;;;9.20;100.00
28027;BME280;15344;52.342;-1.290;2023-11-22T07:04:18;101602.30;;;9.47;100.00
28027;BME280;15344;52.342;-1.290;2023-11-22T07:06:43;101611.67;;;9.26;100.00
28027;BME280;15344;52.342;-1.290;2023-11-22T07:09:09;101607.99;;;8.68;100.00
28027;BME280;15344;52.342;-1.290;2023-11-22T07:11:34;101608.17;;;9.17;100.00
28027;BME280;15344;52.342;-1.290;2023-11-22T07:14:00;101609.70;;;8.52;100.00
28027;BME280;15344;52.342;-1.290;2023-11-22T07:16:25;101612.14;;;9.27;100.00
28027;BME280;15344;52.342;-1.290;2023-11-22T07:18:50;101606.65;;;9.32;100.00
28027;BME280;15344;52.342;-1.290;2023-11-22T07:21:15;101609.41;;;9.28;100.00
28027;BME280;15344;52.342;-1.290;2023-11-22T07:23:40;101605.61;;;9.45;100.00
28027;BME280;15344;52.342;-1.290;2023-11-22T07:26:06;101600.94;;;9.98;100.00
28027;BME280;15344;52.342;-1.290;2023-11-22T07:28:32;101598.00;;;10.24;100.00
28027;BME280;15344;52.342;-1.290;2023-11-22T07:30:57;101591.26;;;9.45;100.00
28027;BME280;15344;52.342;-1.290;2023-11-22T07:33:22;101582.18;;;9.62;100.00
28027;BME280;15344;52.342;-1.290;2023-11-22T07:35:47;101581.05;;;9.55;100.00
28027;BME280;15344;52.342;-1.290;2023-11-22T07:38:13;101583.19;;;9.65;100.00
28027;BME280;15344;52.342;-1.290;2023-11-22T07:40:38;101580.09;;;9.66;100.00
28027;BME280;15344;52.342;-1.290;2023-11-22T07:43:03;101573.58;;;9.92;100.00
28027;BME280;15344;52.342;-1.290;2023-11-22T07:45:29;101571.24;;;9.33;100.00
28027;BME280;15344;52.342;-1.290;2023-11-22T07:47:54;101563.78;;;8.79;100.00
28027;BME280;15344;52.342;-1.290;2023-11-22T07:50:20;101580.85;;;8.73;100.00
28027;BME280;15344;52.342;-1.290;2023-11-22T07:52:45;101591.74;;;8.84;100.00
28027;BME280;15344;52.342;-1.290;2023-11-22T07:55:11;101595.23;;;9.20;100.00
28027;BME280;15344;52.342;-1.290;2023-11-22T07:57:37;101592.11;;;9.61;100.00
28027;BME280;15344;52.342;-1.290;2023-11-22T08:00:02;101593.65;;;9.62;100.00
28027;BME280;15344;52.342;-1.290;2023-11-22T08:02:27;101595.20;;;9.67;100.00
28027;BME280;15344;52.342;-1.290;2023-11-22T08:04:53;101589.83;;;10.28;100.00
28027;BME280;15344;52.342;-1.290;2023-11-22T08:07:17;101577.67;;;10.29;100.00
28027;BME280;15344;52.342;-1.290;2023-11-22T08:09:43;101567.21;;;10.00;100.00
28027;BME280;15344;52.342;-1.290;2023-11-22T08:12:08;101558.53;;;10.10;100.00
28027;BME280;15344;52.342;-1.290;2023-11-22T08:14:33;101558.43;;;9.53;100.00
28027;BME280;15344;52.342;-1.290;2023-11-22T08:16:59;101552.28;;;9.91;100.00
28027;BME280;15344;52.342;-1.290;2023-11-22T08:19:24;101557.69;;;9.03;100.00
28027;BME280;15344;52.342;-1.290;2023-11-22T08:21:50;101569.84;;;8.83;100.00
28027;BME280;15344;52.342;-1.290;2023-11-22T08:24:15;101572.67;;;9.74;100.00
28027;BME280;15344;52.342;-1.290;2023-11-22T08:26:40;101578.48;;;9.74;100.00
28027;BME280;15344;52.342;-1.290;2023-11-22T08:29:05;101580.18;;;10.19;100.00
28027;BME280;15344;52.342;-1.290;2023-11-22T08:31:31;101573.58;;;9.85;100.00
28027;BME280;15344;52.342;-1.290;2023-11-22T08:33:57;101563.72;;;10.07;100.00
28027;BME280;15344;52.342;-1.290;2023-11-22T08:36:23;101566.42;;;9.64;100.00
28027;BME280;15344;52.342;-1.290;2023-11-22T08:38:47;101560.39;;;10.24;100.00
28027;BME280;15344;52.342;-1.290;2023-11-22T08:41:13;101565.91;;;10.47;100.00
28027;BME280;15344;52.342;-1.290;2023-11-22T08:43:38;101557.18;;;10.24;100.00
28027;BME280;15344;52.342;-1.290;2023-11-22T08:46:04;101553.01;;;10.45;100.00
28027;BME280;15344;52.342;-1.290;2023-11-22T08:48:28;101550.59;;;9.54;100.00
28027;BME280;15344;52.342;-1.290;2023-11-22T08:50:54;101544.97;;;10.46;100.00
28027;BME280;15344;52.342;-1.290;2023-11-22T08:53:19;101547.78;;;10.10;100.00
28027;BME280;15344;52.342;-1.290;2023-11-22T08:55:45;101556.21;;;10.09;100.00
28027;BME280;15344;52.342;-1.290;2023-11-22T08:58:10;101554.31;;;11.00;100.00
28027;BME280;15344;52.342;-1.290;2023-11-22T09:00:36;101556.77;;;11.11;100.00
28027;BME280;15344;52.342;-1.290;2023-11-22T09:03:01;101556.94;;;11.44;99.75
28027;BME280;15344;52.342;-1.290;2023-11-22T09:05:26;101557.76;;;10.95;100.00
28027;BME280;15344;52.342;-1.290;2023-11-22T09:07:52;101555.70;;;11.00;100.00
28027;BME280;15344;52.342;-1.290;2023-11-22T09:10:17;101550.26;;;10.86;100.00
28027;BME280;15344;52.342;-1.290;2023-11-22T09:12:43;101547.20;;;10.24;100.00
28027;BME280;15344;52.342;-1.290;2023-11-22T09:15:09;101549.84;;;10.73;100.00
28027;BME280;15344;52.342;-1.290;2023-11-22T09:17:34;101554.45;;;10.73;100.00
28027;BME280;15344;52.342;-1.290;2023-11-22T09:19:59;101550.81;;;10.11;100.00
28027;BME280;15344;52.342;-1.290;2023-11-22T09:22:24;101550.64;;;9.33;100.00
28027;BME280;15344;52.342;-1.290;2023-11-22T09:24:50;101549.58;;;9.83;100.00
28027;BME280;15344;52.342;-1.290;2023-11-22T09:27:15;101555.76;;;9.89;100.00
28027;BME280;15344;52.342;-1.290;2023-11-22T09:29:40;101557.17;;;9.90;100.00
28027;BME280;15344;52.342;-1.290;2023-11-22T09:32:06;101560.68;;;10.67;100.00
28027;BME280;15344;52.342;-1.290;2023-11-22T09:34:31;101567.61;;;10.67;100.00
28027;BME280;15344;52.342;-1.290;2023-11-22T09:36:57;101567.92;;;10.12;100.00
28027;BME280;15344;52.342;-1.290;2023-11-22T09:39:22;101565.42;;;9.74;100.00
28027;BME280;15344;52.342;-1.290;2023-11-22T09:41:53;101553.96;;;9.28;100.00
28027;BME280;15344;52.342;-1.290;2023-11-22T09:44:13;101548.47;;;9.47;100.00
28027;BME280;15344;52.342;-1.290;2023-11-22T09:46:39;101540.88;;;9.74;100.00
28027;BME280;15344;52.342;-1.290;2023-11-22T09:49:08;101538.93;;;10.02;100.00
28027;BME280;15344;52.342;-1.290;2023-11-22T09:51:30;101536.74;;;9.82;100.00
28027;BME280;15344;52.342;-1.290;2023-11-22T09:53:56;101535.63;;;9.78;100.00
28027;BME280;15344;52.342;-1.290;2023-11-22T09:56:20;101553.95;;;9.04;100.00
28027;BME280;15344;52.342;-1.290;2023-11-22T09:58:45;101561.13;;;9.93;100.00
28027;BME280;15344;52.342;-1.290;2023-11-22T10:01:11;101556.42;;;9.98;100.00
28027;BME280;15344;52.342;-1.290;2023-11-22T10:03:36;101556.99;;;9.84;100.00
28027;BME280;15344;52.342;-1.290;2023-11-22T10:06:01;101552.78;;;9.97;100.00
28027;BME280;15344;52.342;-1.290;2023-11-22T10:08:27;101559.79;;;9.71;100.00
28027;BME280;15344;52.342;-1.290;2023-11-22T10:10:53;101562.27;;;9.95;100.00
28027;BME280;15344;52.342;-1.290;2023-11-22T10:13:17;101568.12;;;10.47;100.00
28027;BME280;15344;52.342;-1.290;2023-11-22T10:15:43;101570.58;;;10.54;100.00
28027;BME280;15344;52.342;-1.290;2023-11-22T10:18:08;101575.93;;;10.87;100.00
28027;BME280;15344;52.342;-1.290;2023-11-22T10:20:38;101578.07;;;11.32;100.00
28027;BME280;15344;52.342;-1.290;2023-11-22T10:22:59;101578.32;;;10.90;100.00
28027;BME280;15344;52.342;-1.290;2023-11-22T10:25:24;101580.15;;;10.97;100.00
28027;BME280;15344;52.342;-1.290;2023-11-22T10:27:50;101573.49;;;10.79;100.00
28027;BME280;15344;52.342;-1.290;2023-11-22T10:30:15;101568.16;;;11.11;100.00
28027;BME280;15344;52.342;-1.290;2023-11-22T10:32:42;101557.15;;;10.92;100.00
28027;BME280;15344;52.342;-1.290;2023-11-22T10:35:07;101560.71;;;11.33;100.00
28027;BME280;15344;52.342;-1.290;2023-11-22T10:37:32;101562.72;;;11.02;100.00
28027;BME280;15344;52.342;-1.290;2023-11-22T10:39:58;101562.27;;;11.15;100.00
28027;BME280;15344;52.342;-1.290;2023-11-22T10:42:22;101564.65;;;11.12;100.00
28027;BME280;15344;52.342;-1.290;2023-11-22T10:44:48;101567.20;;;11.38;100.00
28027;BME280;15344;52.342;-1.290;2023-11-22T10:47:15;101562.70;;;11.26;100.00
28027;BME280;15344;52.342;-1.290;2023-11-22T10:49:38;101564.12;;;11.76;100.00
28027;BME280;15344;52.342;-1.290;2023-11-22T10:52:07;101558.42;;;10.96;100.00
28027;BME280;15344;52.342;-1.290;2023-11-22T10:54:30;101547.22;;;11.40;100.00
28027;BME280;15344;52.342;-1.290;2023-11-22T10:56:55;101535.39;;;10.72;100.00
28027;BME280;15344;52.342;-1.290;2023-11-22T10:59:22;101532.06;;;10.57;100.00
28027;BME280;15344;52.342;-1.290;2023-11-22T11:01:47;101525.53;;;9.92;100.00
28027;BME280;15344;52.342;-1.290;2023-11-22T11:04:17;101505.70;;;10.55;100.00
28027;BME280;15344;52.342;-1.290;2023-11-22T11:06:36;101487.55;;;11.21;100.00
28027;BME280;15344;52.342;-1.290;2023-11-22T11:09:03;101459.11;;;10.90;100.00
28027;BME280;15344;52.342;-1.290;2023-11-22T11:11:27;101453.75;;;10.60;100.00
28027;BME280;15344;52.342;-1.290;2023-11-22T11:13:53;101475.18;;;9.57;100.00
28027;BME280;15344;52.342;-1.290;2023-11-22T11:16:18;101497.42;;;10.49;100.00
28027;BME280;15344;52.342;-1.290;2023-11-22T11:18:43;101508.66;;;10.35;100.00
28027;BME280;15344;52.342;-1.290;2023-11-22T11:21:09;101509.03;;;10.86;100.00
28027;BME280;15344;52.342;-1.290;2023-11-22T11:23:34;101503.54;;;11.15;100.00
28027;BME280;15344;52.342;-1.290;2023-11-22T11:26:08;101487.31;;;10.89;100.00
28027;BME280;15344;52.342;-1.290;2023-11-22T11:28:26;101464.25;;;11.73;100.00
28027;BME280;15344;52.342;-1.290;2023-11-22T11:30:50;101446.63;;;11.52;100.00
28027;BME280;15344;52.342;-1.290;2023-11-22T11:33:17;101425.58;;;11.44;100.00
28027;BME280;15344;52.342;-1.290;2023-11-22T11:35:44;101419.08;;;11.15;100.00
28027;BME280;15344;52.342;-1.290;2023-11-22T11:38:06;101455.50;;;11.27;100.00
28027;BME280;15344;52.342;-1.290;2023-11-22T11:40:32;101458.54;;;11.21;100.00
28027;BME280;15344;52.342;-1.290;2023-11-22T11:42:57;101449.59;;;11.19;100.00
28027;BME280;15344;52.342;-1.290;2023-11-22T11:45:22;101441.89;;;11.70;100.00
28027;BME280;15344;52.342;-1.290;2023-11-22T11:47:47;101448.70;;;10.81;100.00
28027;BME280;15344;52.342;-1.290;2023-11-22T11:50:13;101436.30;;;11.73;100.00
28027;BME280;15344;52.342;-1.290;2023-11-22T11:52:39;101436.12;;;11.55;100.00
28027;BME280;15344;52.342;-1.290;2023-11-22T11:55:05;101442.82;;;11.16;100.00
28027;BME280;15344;52.342;-1.290;2023-11-22T11:57:31;101430.44;;;11.74;100.00
28027;BME280;15344;52.342;-1.290;2023-11-22T11:59:54;101437.67;;;11.53;100.00
28027;BME280;15344;52.342;-1.290;2023-11-22T12:02:21;101434.59;;;11.20;100.00
28027;BME280;15344;52.342;-1.290;2023-11-22T12:04:45;101425.26;;;11.43;100.00
28027;BME280;15344;52.342;-1.290;2023-11-22T12:07:11;101423.20;;;11.58;100.00
28027;BME280;15344;52.342;-1.290;2023-11-22T12:09:35;101424.04;;;11.78;100.00
28027;BME280;15344;52.342;-1.290;2023-11-22T12:12:01;101419.10;;;10.29;100.00
28027;BME280;15344;52.342;-1.290;2023-11-22T12:14:26;101415.20;;;11.06;100.00
28027;BME280;15344;52.342;-1.290;2023-11-22T12:16:52;101394.12;;;11.73;100.00
28027;BME280;15344;52.342;-1.290;2023-11-22T12:19:21;101390.69;;;11.71;100.00
28027;BME280;15344;52.342;-1.290;2023-11-22T12:21:42;101379.16;;;11.72;100.00
28027;BME280;15344;52.342;-1.290;2023-11-22T12:24:08;101391.88;;;11.41;100.00